sensor_id;sensor_type;location;lat;lon;timestamp;P1;durP1;ratioP1;P2;durP2;ratioP2
16969;SDS011;8601;48.718;8.992;2022-09-24T00:02:18;6.53;;;5.93;;
16969;SDS011;8601;48.718;8.992;2022-09-24T00:04:45;9.33;;;6.20;;
16969;SDS011;8601;48.718;8.992;2022-09-24T00:07:13;6.40;;;5.80;;
16969;SDS011;8601;48.718;8.992;2022-09-24T00:09:40;7.90;;;6.10;;
16969;SDS011;8601;48.718;8.992;2022-09-24T00:12:14;7.20;;;6.37;;
16969;SDS011;8601;48.718;8.992;2022-09-24T00:14:42;10.53;;;6.03;;
16969;SDS011;8601;48.718;8.992;2022-09-24T00:17:09;7.47;;;5.90;;
16969;SDS011;8601;48.718;8.992;2022-09-24T00:19:36;6.73;;;5.63;;
16969;SDS011;8601;48.718;8.992;2022-09-24T00:22:03;7.17;;;6.23;;
16969;SDS011;8601;48.718;8.992;2022-09-24T00:27:38;7.60;;;5.80;;
16969;SDS011;8601;48.718;8.992;2022-09-24T00:30:06;9.50;;;5.73;;
16969;SDS011;8601;48.718;8.992;2022-09-24T00:32:33;8.30;;;6.17;;
16969;SDS011;8601;48.718;8.992;2022-09-24T00:35:00;7.00;;;6.30;;
16969;SDS011;8601;48.718;8.992;2022-09-24T00:37:27;6.90;;;6.30;;
16969;SDS011;8601;48.718;8.992;2022-09-24T00:39:55;7.80;;;6.73;;
16969;SDS011;8601;48.718;8.992;2022-09-24T00:42:22;7.00;;;6.13;;
16969;SDS011;8601;48.718;8.992;2022-09-24T00:44:50;7.60;;;6.77;;
16969;SDS011;8601;48.718;8.992;2022-09-24T00:47:23;7.70;;;6.90;;
16969;SDS011;8601;48.718;8.992;2022-09-24T00:49:57;7.53;;;6.80;;
16969;SDS011;8601;48.718;8.992;2022-09-24T00:52:30;7.43;;;6.73;;
16969;SDS011;8601;48.718;8.992;2022-09-24T00:54:59;7.07;;;6.47;;
16969;SDS011;8601;48.718;8.992;2022-09-24T00:57:26;7.83;;;7.13;;
16969;SDS011;8601;48.718;8.992;2022-09-24T00:59:53;7.37;;;6.10;;
16969;SDS011;8601;48.718;8.992;2022-09-24T01:02:21;7.87;;;7.17;;
16969;SDS011;8601;48.718;8.992;2022-09-24T01:04:48;9.43;;;7.07;;
16969;SDS011;8601;48.718;8.992;2022-09-24T01:07:33;7.00;;;6.40;;
16969;SDS011;8601;48.718;8.992;2022-09-24T01:10:02;7.27;;;6.57;;
16969;SDS011;8601;48.718;8.992;2022-09-24T01:12:31;9.77;;;6.70;;
16969;SDS011;8601;48.718;8.992;2022-09-24T01:15:08;8.60;;;7.70;;
16969;SDS011;8601;48.718;8.992;2022-09-24T01:17:42;7.90;;;6.40;;
16969;SDS011;8601;48.718;8.992;2022-09-24T01:20:24;9.07;;;7.50;;
16969;SDS011;8601;48.718;8.992;2022-09-24T01:23:09;7.93;;;6.50;;
16969;SDS011;8601;48.718;8.992;2022-09-24T01:25:48;7.57;;;6.83;;
16969;SDS011;8601;48.718;8.992;2022-09-24T01:28:27;9.20;;;7.37;;
16969;SDS011;8601;48.718;8.992;2022-09-24T01:31:04;9.47;;;7.47;;
16969;SDS011;8601;48.718;8.992;2022-09-24T01:33:33;8.80;;;7.60;;
16969;SDS011;8601;48.718;8.992;2022-09-24T01:36:03;9.60;;;7.73;;
16969;SDS011;8601;48.718;8.992;2022-09-24T01:38:34;9.60;;;7.93;;
16969;SDS011;8601;48.718;8.992;2022-09-24T01:41:05;8.80;;;7.63;;
16969;SDS011;8601;48.718;8.992;2022-09-24T01:43:35;8.60;;;7.73;;
16969;SDS011;8601;48.718;8.992;2022-09-24T01:46:05;8.57;;;7.70;;
16969;SDS011;8601;48.718;8.992;2022-09-24T01:48:34;8.37;;;7.57;;
16969;SDS011;8601;48.718;8.992;2022-09-24T01:51:04;10.33;;;7.87;;
16969;SDS011;8601;48.718;8.992;2022-09-24T01:57:14;8.33;;;7.53;;
16969;SDS011;8601;48.718;8.992;2022-09-24T01:59:45;8.20;;;7.40;;
16969;SDS011;8601;48.718;8.992;2022-09-24T02:02:21;8.50;;;7.60;;
16969;SDS011;8601;48.718;8.992;2022-09-24T02:04:57;7.80;;;7.00;;
16969;SDS011;8601;48.718;8.992;2022-09-24T02:07:29;7.90;;;7.17;;
16969;SDS011;8601;48.718;8.992;2022-09-24T02:10:00;9.17;;;7.90;;
16969;SDS011;8601;48.718;8.992;2022-09-24T02:12:28;8.23;;;6.87;;
16969;SDS011;8601;48.718;8.992;2022-09-24T02:14:59;8.00;;;7.20;;
16969;SDS011;8601;48.718;8.992;2022-09-24T02:17:33;7.77;;;7.07;;
16969;SDS011;8601;48.718;8.992;2022-09-24T02:20:04;8.00;;;7.20;;
16969;SDS011;8601;48.718;8.992;2022-09-24T02:22:38;6.43;;;5.83;;
16969;SDS011;8601;48.718;8.992;2022-09-24T02:25:08;6.47;;;5.87;;
16969;SDS011;8601;48.718;8.992;2022-09-24T02:27:39;7.00;;;6.30;;
16969;SDS011;8601;48.718;8.992;2022-09-24T02:30:08;8.73;;;6.17;;
16969;SDS011;8601;48.718;8.992;2022-09-24T02:32:38;6.57;;;5.87;;
16969;SDS011;8601;48.718;8.992;2022-09-24T02:35:08;6.97;;;6.27;;
16969;SDS011;8601;48.718;8.992;2022-09-24T02:37:35;6.83;;;6.17;;
16969;SDS011;8601;48.718;8.992;2022-09-24T02:40:03;7.67;;;6.93;;
16969;SDS011;8601;48.718;8.992;2022-09-24T02:42:32;6.63;;;6.03;;
16969;SDS011;8601;48.718;8.992;2022-09-24T02:44:59;8.90;;;6.93;;
16969;SDS011;8601;48.718;8.992;2022-09-24T02:50:48;7.03;;;5.97;;
16969;SDS011;8601;48.718;8.992;2022-09-24T02:53:15;6.37;;;5.77;;
16969;SDS011;8601;48.718;8.992;2022-09-24T02:55:41;6.30;;;5.80;;
16969;SDS011;8601;48.718;8.992;2022-09-24T02:58:08;8.13;;;6.17;;
16969;SDS011;8601;48.718;8.992;2022-09-24T03:00:35;8.20;;;6.30;;
16969;SDS011;8601;48.718;8.992;2022-09-24T03:03:02;7.20;;;6.50;;
16969;SDS011;8601;48.718;8.992;2022-09-24T03:05:29;6.87;;;6.23;;
16969;SDS011;8601;48.718;8.992;2022-09-24T03:07:57;6.77;;;6.07;;
16969;SDS011;8601;48.718;8.992;2022-09-24T03:10:24;6.63;;;5.93;;
16969;SDS011;8601;48.718;8.992;2022-09-24T03:12:51;7.17;;;6.47;;
16969;SDS011;8601;48.718;8.992;2022-09-24T03:15:18;7.30;;;6.57;;
16969;SDS011;8601;48.718;8.992;2022-09-24T03:17:45;7.37;;;6.63;;
16969;SDS011;8601;48.718;8.992;2022-09-24T03:20:12;7.00;;;6.30;;
16969;SDS011;8601;48.718;8.992;2022-09-24T03:22:39;6.80;;;6.20;;
16969;SDS011;8601;48.718;8.992;2022-09-24T03:25:08;7.20;;;6.50;;
16969;SDS011;8601;48.718;8.992;2022-09-24T03:27:36;8.50;;;6.90;;
16969;SDS011;8601;48.718;8.992;2022-09-24T03:30:03;8.57;;;7.00;;
16969;SDS011;8601;48.718;8.992;2022-09-24T03:32:48;8.90;;;7.97;;
16969;SDS011;8601;48.718;8.992;2022-09-24T03:35:15;9.23;;;8.20;;
16969;SDS011;8601;48.718;8.992;2022-09-24T03:37:42;8.83;;;7.07;;
16969;SDS011;8601;48.718;8.992;2022-09-24T03:40:11;6.97;;;6.37;;
16969;SDS011;8601;48.718;8.992;2022-09-24T03:42:45;7.77;;;6.97;;
16969;SDS011;8601;48.718;8.992;2022-09-24T03:45:12;8.93;;;7.30;;
16969;SDS011;8601;48.718;8.992;2022-09-24T03:47:39;8.43;;;7.03;;
16969;SDS011;8601;48.718;8.992;2022-09-24T03:50:06;8.97;;;7.70;;
16969;SDS011;8601;48.718;8.992;2022-09-24T03:52:35;9.30;;;6.60;;
16969;SDS011;8601;48.718;8.992;2022-09-24T03:55:02;6.83;;;6.20;;
16969;SDS011;8601;48.718;8.992;2022-09-24T03:57:31;7.83;;;7.00;;
16969;SDS011;8601;48.718;8.992;2022-09-24T03:59:58;8.17;;;6.97;;
16969;SDS011;8601;48.718;8.992;2022-09-24T04:02:24;7.03;;;6.43;;
16969;SDS011;8601;48.718;8.992;2022-09-24T04:04:51;8.03;;;7.23;;
16969;SDS011;8601;48.718;8.992;2022-09-24T04:07:18;7.73;;;6.93;;
16969;SDS011;8601;48.718;8.992;2022-09-24T04:09:45;10.43;;;6.93;;
16969;SDS011;8601;48.718;8.992;2022-09-24T04:12:12;8.77;;;7.97;;
16969;SDS011;8601;48.718;8.992;2022-09-24T04:14:40;8.50;;;7.70;;
16969;SDS011;8601;48.718;8.992;2022-09-24T04:17:08;8.57;;;7.73;;
16969;SDS011;8601;48.718;8.992;2022-09-24T04:19:35;9.07;;;8.10;;
16969;SDS011;8601;48.718;8.992;2022-09-24T04:22:04;9.37;;;8.40;;
16969;SDS011;8601;48.718;8.992;2022-09-24T04:24:30;9.60;;;8.60;;
16969;SDS011;8601;48.718;8.992;2022-09-24T04:26:58;8.80;;;8.00;;
16969;SDS011;8601;48.718;8.992;2022-09-24T04:29:25;8.50;;;7.60;;
16969;SDS011;8601;48.718;8.992;2022-09-24T04:31:53;9.40;;;7.80;;
16969;SDS011;8601;48.718;8.992;2022-09-24T04:34:20;8.97;;;8.07;;
16969;SDS011;8601;48.718;8.992;2022-09-24T04:36:46;9.00;;;8.10;;
16969;SDS011;8601;48.718;8.992;2022-09-24T04:39:13;10.03;;;7.90;;
16969;SDS011;8601;48.718;8.992;2022-09-24T04:41:40;8.23;;;7.43;;
16969;SDS011;8601;48.718;8.992;2022-09-24T04:44:07;10.03;;;9.00;;
16969;SDS011;8601;48.718;8.992;2022-09-24T04:46:35;9.00;;;8.07;;
16969;SDS011;8601;48.718;8.992;2022-09-24T04:49:06;8.77;;;7.97;;
16969;SDS011;8601;48.718;8.992;2022-09-24T04:51:33;9.47;;;8.47;;
16969;SDS011;8601;48.718;8.992;2022-09-24T04:54:00;8.90;;;8.07;;
16969;SDS011;8601;48.718;8.992;2022-09-24T04:56:27;9.47;;;8.00;;
16969;SDS011;8601;48.718;8.992;2022-09-24T04:58:55;9.23;;;7.50;;
16969;SDS011;8601;48.718;8.992;2022-09-24T05:01:22;8.97;;;7.60;;
16969;SDS011;8601;48.718;8.992;2022-09-24T05:03:49;8.33;;;7.60;;
16969;SDS011;8601;48.718;8.992;2022-09-24T05:06:20;9.83;;;8.83;;
16969;SDS011;8601;48.718;8.992;2022-09-24T05:08:47;8.37;;;7.60;;
16969;SDS011;8601;48.718;8.992;2022-09-24T05:11:14;8.77;;;7.73;;
16969;SDS011;8601;48.718;8.992;2022-09-24T05:13:48;9.23;;;8.37;;
16969;SDS011;8601;48.718;8.992;2022-09-24T05:16:15;9.93;;;8.57;;
16969;SDS011;8601;48.718;8.992;2022-09-24T05:18:42;8.57;;;7.67;;
16969;SDS011;8601;48.718;8.992;2022-09-24T05:21:09;9.23;;;8.37;;
16969;SDS011;8601;48.718;8.992;2022-09-24T05:23:38;9.13;;;8.23;;
16969;SDS011;8601;48.718;8.992;2022-09-24T05:26:05;10.63;;;8.03;;
16969;SDS011;8601;48.718;8.992;2022-09-24T05:32:03;9.83;;;8.83;;
16969;SDS011;8601;48.718;8.992;2022-09-24T05:34:31;10.37;;;8.57;;
16969;SDS011;8601;48.718;8.992;2022-09-24T05:36:59;10.23;;;8.67;;
16969;SDS011;8601;48.718;8.992;2022-09-24T05:39:28;10.73;;;8.63;;
16969;SDS011;8601;48.718;8.992;2022-09-24T05:41:55;10.23;;;9.17;;
16969;SDS011;8601;48.718;8.992;2022-09-24T05:44:22;11.23;;;9.20;;
16969;SDS011;8601;48.718;8.992;2022-09-24T05:46:49;12.13;;;9.60;;
16969;SDS011;8601;48.718;8.992;2022-09-24T05:49:17;10.43;;;9.43;;
16969;SDS011;8601;48.718;8.992;2022-09-24T05:51:46;10.50;;;9.33;;
16969;SDS011;8601;48.718;8.992;2022-09-24T05:54:13;11.30;;;10.20;;
16969;SDS011;8601;48.718;8.992;2022-09-24T05:56:41;11.07;;;10.07;;
16969;SDS011;8601;48.718;8.992;2022-09-24T05:59:09;10.83;;;9.83;;
16969;SDS011;8601;48.718;8.992;2022-09-24T06:01:37;10.33;;;9.43;;
16969;SDS011;8601;48.718;8.992;2022-09-24T06:04:12;11.13;;;10.03;;
16969;SDS011;8601;48.718;8.992;2022-09-24T06:06:39;10.93;;;9.83;;
16969;SDS011;8601;48.718;8.992;2022-09-24T06:09:07;10.57;;;9.47;;
16969;SDS011;8601;48.718;8.992;2022-09-24T06:14:20;10.47;;;9.40;;
16969;SDS011;8601;48.718;8.992;2022-09-24T06:16:47;10.97;;;9.70;;
16969;SDS011;8601;48.718;8.992;2022-09-24T06:19:14;11.60;;;10.40;;
16969;SDS011;8601;48.718;8.992;2022-09-24T06:21:41;10.97;;;9.93;;
16969;SDS011;8601;48.718;8.992;2022-09-24T06:24:08;10.37;;;9.27;;
16969;SDS011;8601;48.718;8.992;2022-09-24T06:26:35;10.95;;;9.70;;
16969;SDS011;8601;48.718;8.992;2022-09-24T06:29:03;11.60;;;8.87;;
16969;SDS011;8601;48.718;8.992;2022-09-24T06:31:31;10.63;;;9.63;;
16969;SDS011;8601;48.718;8.992;2022-09-24T06:33:58;10.53;;;9.53;;
16969;SDS011;8601;48.718;8.992;2022-09-24T06:36:26;11.63;;;10.57;;
16969;SDS011;8601;48.718;8.992;2022-09-24T06:38:53;10.60;;;9.60;;
16969;SDS011;8601;48.718;8.992;2022-09-24T06:41:22;16.47;;;10.13;;
16969;SDS011;8601;48.718;8.992;2022-09-24T06:43:52;11.00;;;8.97;;
16969;SDS011;8601;48.718;8.992;2022-09-24T06:46:21;10.63;;;9.23;;
16969;SDS011;8601;48.718;8.992;2022-09-24T06:48:49;11.40;;;10.30;;
16969;SDS011;8601;48.718;8.992;2022-09-24T06:51:18;13.93;;;11.03;;
16969;SDS011;8601;48.718;8.992;2022-09-24T06:53:45;12.60;;;11.27;;
16969;SDS011;8601;48.718;8.992;2022-09-24T06:56:11;12.90;;;9.57;;
16969;SDS011;8601;48.718;8.992;2022-09-24T06:58:38;10.20;;;8.70;;
16969;SDS011;8601;48.718;8.992;2022-09-24T07:01:05;10.93;;;9.83;;
16969;SDS011;8601;48.718;8.992;2022-09-24T07:03:34;10.43;;;9.30;;
16969;SDS011;8601;48.718;8.992;2022-09-24T07:06:03;10.67;;;9.57;;
16969;SDS011;8601;48.718;8.992;2022-09-24T07:08:31;11.87;;;8.40;;
16969;SDS011;8601;48.718;8.992;2022-09-24T07:10:58;11.17;;;10.00;;
16969;SDS011;8601;48.718;8.992;2022-09-24T07:16:56;10.70;;;9.57;;
16969;SDS011;8601;48.718;8.992;2022-09-24T07:19:24;10.23;;;9.20;;
16969;SDS011;8601;48.718;8.992;2022-09-24T07:24:50;14.10;;;10.20;;
16969;SDS011;8601;48.718;8.992;2022-09-24T07:27:17;11.70;;;8.33;;
16969;SDS011;8601;48.718;8.992;2022-09-24T07:29:45;10.77;;;8.87;;
16969;SDS011;8601;48.718;8.992;2022-09-24T07:32:14;9.27;;;8.37;;
16969;SDS011;8601;48.718;8.992;2022-09-24T07:34:42;10.27;;;8.97;;
16969;SDS011;8601;48.718;8.992;2022-09-24T07:37:09;10.17;;;8.00;;
16969;SDS011;8601;48.718;8.992;2022-09-24T07:39:36;9.93;;;8.97;;
16969;SDS011;8601;48.718;8.992;2022-09-24T07:42:04;9.07;;;7.83;;
16969;SDS011;8601;48.718;8.992;2022-09-24T07:44:31;11.27;;;7.07;;
16969;SDS011;8601;48.718;8.992;2022-09-24T07:46:58;8.40;;;6.73;;
16969;SDS011;8601;48.718;8.992;2022-09-24T07:49:25;7.13;;;6.43;;
16969;SDS011;8601;48.718;8.992;2022-09-24T07:51:55;6.50;;;6.00;;
16969;SDS011;8601;48.718;8.992;2022-09-24T07:54:21;6.43;;;5.73;;
16969;SDS011;8601;48.718;8.992;2022-09-24T07:56:48;6.57;;;5.80;;
16969;SDS011;8601;48.718;8.992;2022-09-24T07:59:15;8.23;;;5.83;;
16969;SDS011;8601;48.718;8.992;2022-09-24T08:01:44;6.53;;;5.93;;
16969;SDS011;8601;48.718;8.992;2022-09-24T08:04:11;6.87;;;5.67;;
16969;SDS011;8601;48.718;8.992;2022-09-24T08:06:38;7.17;;;6.53;;
16969;SDS011;8601;48.718;8.992;2022-09-24T08:09:06;8.13;;;6.57;;
16969;SDS011;8601;48.718;8.992;2022-09-24T08:11:33;6.93;;;6.17;;
16969;SDS011;8601;48.718;8.992;2022-09-24T08:14:00;7.10;;;6.40;;
16969;SDS011;8601;48.718;8.992;2022-09-24T08:16:27;7.93;;;6.40;;
16969;SDS011;8601;48.718;8.992;2022-09-24T08:18:53;9.23;;;6.60;;
16969;SDS011;8601;48.718;8.992;2022-09-24T08:21:21;8.23;;;6.80;;
16969;SDS011;8601;48.718;8.992;2022-09-24T08:23:48;7.70;;;6.57;;
16969;SDS011;8601;48.718;8.992;2022-09-24T08:26:16;7.20;;;6.50;;
16969;SDS011;8601;48.718;8.992;2022-09-24T08:28:43;8.70;;;7.90;;
16969;SDS011;8601;48.718;8.992;2022-09-24T08:31:10;10.00;;;7.67;;
16969;SDS011;8601;48.718;8.992;2022-09-24T08:33:38;7.93;;;7.23;;
16969;SDS011;8601;48.718;8.992;2022-09-24T08:36:06;9.53;;;7.53;;
16969;SDS011;8601;48.718;8.992;2022-09-24T08:38:34;8.50;;;7.70;;
16969;SDS011;8601;48.718;8.992;2022-09-24T08:41:04;8.97;;;7.57;;
16969;SDS011;8601;48.718;8.992;2022-09-24T08:43:52;6.93;;;6.40;;
16969;SDS011;8601;48.718;8.992;2022-09-24T08:46:27;7.93;;;7.03;;
16969;SDS011;8601;48.718;8.992;2022-09-24T08:49:15;7.63;;;6.93;;
16969;SDS011;8601;48.718;8.992;2022-09-24T08:51:49;9.17;;;7.80;;
16969;SDS011;8601;48.718;8.992;2022-09-24T08:54:23;10.23;;;7.13;;
16969;SDS011;8601;48.718;8.992;2022-09-24T08:56:54;12.37;;;8.43;;
16969;SDS011;8601;48.718;8.992;2022-09-24T08:59:25;8.67;;;6.67;;
16969;SDS011;8601;48.718;8.992;2022-09-24T09:02:02;6.80;;;6.20;;
16969;SDS011;8601;48.718;8.992;2022-09-24T09:04:42;8.87;;;7.40;;
16969;SDS011;8601;48.718;8.992;2022-09-24T09:07:19;7.67;;;6.87;;
16969;SDS011;8601;48.718;8.992;2022-09-24T09:09:49;8.20;;;7.23;;
16969;SDS011;8601;48.718;8.992;2022-09-24T09:12:22;9.10;;;7.70;;
16969;SDS011;8601;48.718;8.992;2022-09-24T09:15:01;8.63;;;7.83;;
16969;SDS011;8601;48.718;8.992;2022-09-24T09:17:33;8.73;;;7.80;;
16969;SDS011;8601;48.718;8.992;2022-09-24T09:20:09;9.53;;;7.63;;
16969;SDS011;8601;48.718;8.992;2022-09-24T09:22:43;9.13;;;8.23;;
16969;SDS011;8601;48.718;8.992;2022-09-24T09:25:16;8.43;;;7.53;;
16969;SDS011;8601;48.718;8.992;2022-09-24T09:27:46;8.20;;;7.40;;
16969;SDS011;8601;48.718;8.992;2022-09-24T09:30:19;7.70;;;7.00;;
16969;SDS011;8601;48.718;8.992;2022-09-24T09:32:51;8.93;;;6.90;;
16969;SDS011;8601;48.718;8.992;2022-09-24T09:35:37;10.67;;;7.37;;
16969;SDS011;8601;48.718;8.992;2022-09-24T09:38:12;8.87;;;7.20;;
16969;SDS011;8601;48.718;8.992;2022-09-24T09:40:49;7.77;;;7.07;;
16969;SDS011;8601;48.718;8.992;2022-09-24T09:43:26;8.43;;;7.63;;
16969;SDS011;8601;48.718;8.992;2022-09-24T09:45:59;8.90;;;6.50;;
16969;SDS011;8601;48.718;8.992;2022-09-24T09:48:38;9.00;;;5.97;;
16969;SDS011;8601;48.718;8.992;2022-09-24T09:51:12;7.50;;;6.33;;
16969;SDS011;8601;48.718;8.992;2022-09-24T09:53:54;6.80;;;6.20;;
16969;SDS011;8601;48.718;8.992;2022-09-24T09:56:24;6.33;;;5.73;;
16969;SDS011;8601;48.718;8.992;2022-09-24T09:59:01;6.27;;;5.73;;
16969;SDS011;8601;48.718;8.992;2022-09-24T10:01:32;6.17;;;5.67;;
16969;SDS011;8601;48.718;8.992;2022-09-24T10:04:01;5.80;;;5.23;;
16969;SDS011;8601;48.718;8.992;2022-09-24T10:06:30;5.40;;;4.90;;
16969;SDS011;8601;48.718;8.992;2022-09-24T10:09:05;6.83;;;5.13;;
16969;SDS011;8601;48.718;8.992;2022-09-24T10:11:33;6.00;;;4.60;;
16969;SDS011;8601;48.718;8.992;2022-09-24T10:14:02;5.50;;;5.00;;
16969;SDS011;8601;48.718;8.992;2022-09-24T10:16:34;6.13;;;5.57;;
16969;SDS011;8601;48.718;8.992;2022-09-24T10:19:03;6.10;;;5.57;;
16969;SDS011;8601;48.718;8.992;2022-09-24T10:21:38;5.17;;;4.40;;
16969;SDS011;8601;48.718;8.992;2022-09-24T10:24:09;5.73;;;5.17;;
16969;SDS011;8601;48.718;8.992;2022-09-24T10:26:41;6.13;;;5.03;;
16969;SDS011;8601;48.718;8.992;2022-09-24T10:29:12;5.50;;;4.97;;
16969;SDS011;8601;48.718;8.992;2022-09-24T10:31:59;6.07;;;5.20;;
16969;SDS011;8601;48.718;8.992;2022-09-24T10:34:27;6.40;;;5.80;;
16969;SDS011;8601;48.718;8.992;2022-09-24T10:36:57;7.47;;;6.43;;
16969;SDS011;8601;48.718;8.992;2022-09-24T10:39:26;6.13;;;5.50;;
16969;SDS011;8601;48.718;8.992;2022-09-24T10:41:54;6.10;;;5.50;;
16969;SDS011;8601;48.718;8.992;2022-09-24T10:44:24;7.27;;;6.30;;
16969;SDS011;8601;48.718;8.992;2022-09-24T10:47:04;5.80;;;5.30;;
16969;SDS011;8601;48.718;8.992;2022-09-24T10:52:49;5.83;;;5.33;;
16969;SDS011;8601;48.718;8.992;2022-09-24T10:55:23;5.10;;;4.57;;
16969;SDS011;8601;48.718;8.992;2022-09-24T10:58:01;5.90;;;5.27;;
16969;SDS011;8601;48.718;8.992;2022-09-24T11:00:37;6.07;;;5.50;;
16969;SDS011;8601;48.718;8.992;2022-09-24T11:06:13;5.30;;;4.80;;
16969;SDS011;8601;48.718;8.992;2022-09-24T11:08:51;7.30;;;5.10;;
16969;SDS011;8601;48.718;8.992;2022-09-24T11:11:35;5.83;;;4.60;;
16969;SDS011;8601;48.718;8.992;2022-09-24T11:14:21;5.53;;;5.07;;
16969;SDS011;8601;48.718;8.992;2022-09-24T11:17:04;6.67;;;5.43;;
16969;SDS011;8601;48.718;8.992;2022-09-24T11:19:58;6.73;;;6.13;;
16969;SDS011;8601;48.718;8.992;2022-09-24T11:22:48;5.87;;;5.27;;
16969;SDS011;8601;48.718;8.992;2022-09-24T11:25:37;6.23;;;5.60;;
16969;SDS011;8601;48.718;8.992;2022-09-24T11:28:20;6.10;;;5.60;;
16969;SDS011;8601;48.718;8.992;2022-09-24T11:31:01;5.47;;;4.97;;
16969;SDS011;8601;48.718;8.992;2022-09-24T11:33:50;5.30;;;4.73;;
16969;SDS011;8601;48.718;8.992;2022-09-24T11:36:34;6.00;;;5.50;;
16969;SDS011;8601;48.718;8.992;2022-09-24T11:39:17;6.03;;;5.37;;
16969;SDS011;8601;48.718;8.992;2022-09-24T11:41:53;6.00;;;5.17;;
16969;SDS011;8601;48.718;8.992;2022-09-24T11:47:22;5.77;;;5.23;;
16969;SDS011;8601;48.718;8.992;2022-09-24T11:50:02;6.83;;;6.10;;
16969;SDS011;8601;48.718;8.992;2022-09-24T11:52:44;6.30;;;5.67;;
16969;SDS011;8601;48.718;8.992;2022-09-24T11:55:17;7.90;;;5.77;;
16969;SDS011;8601;48.718;8.992;2022-09-24T11:57:49;6.07;;;5.30;;
16969;SDS011;8601;48.718;8.992;2022-09-24T12:00:23;6.40;;;5.80;;
16969;SDS011;8601;48.718;8.992;2022-09-24T12:02:59;6.63;;;6.03;;
16969;SDS011;8601;48.718;8.992;2022-09-24T12:05:32;6.40;;;5.80;;
16969;SDS011;8601;48.718;8.992;2022-09-24T12:08:03;6.67;;;6.03;;
16969;SDS011;8601;48.718;8.992;2022-09-24T12:10:38;6.40;;;5.80;;
16969;SDS011;8601;48.718;8.992;2022-09-24T12:13:10;7.20;;;6.50;;
16969;SDS011;8601;48.718;8.992;2022-09-24T12:15:44;7.53;;;6.80;;
16969;SDS011;8601;48.718;8.992;2022-09-24T12:20:55;8.57;;;7.07;;
16969;SDS011;8601;48.718;8.992;2022-09-24T12:23:27;8.80;;;7.97;;
16969;SDS011;8601;48.718;8.992;2022-09-24T12:25:58;5.73;;;5.23;;
16969;SDS011;8601;48.718;8.992;2022-09-24T12:28:31;5.30;;;4.83;;
16969;SDS011;8601;48.718;8.992;2022-09-24T12:31:22;5.00;;;4.50;;
16969;SDS011;8601;48.718;8.992;2022-09-24T12:34:13;4.70;;;4.30;;
16969;SDS011;8601;48.718;8.992;2022-09-24T12:36:50;4.00;;;3.60;;
16969;SDS011;8601;48.718;8.992;2022-09-24T12:39:23;4.30;;;3.93;;
16969;SDS011;8601;48.718;8.992;2022-09-24T12:41:55;3.67;;;3.37;;
16969;SDS011;8601;48.718;8.992;2022-09-24T12:44:28;3.87;;;3.53;;
16969;SDS011;8601;48.718;8.992;2022-09-24T12:47:00;3.97;;;3.67;;
16969;SDS011;8601;48.718;8.992;2022-09-24T12:49:29;3.50;;;3.20;;
16969;SDS011;8601;48.718;8.992;2022-09-24T12:52:02;4.90;;;3.47;;
16969;SDS011;8601;48.718;8.992;2022-09-24T12:54:41;5.07;;;3.90;;
16969;SDS011;8601;48.718;8.992;2022-09-24T12:57:12;4.57;;;3.77;;
16969;SDS011;8601;48.718;8.992;2022-09-24T12:59:48;3.70;;;3.40;;
16969;SDS011;8601;48.718;8.992;2022-09-24T13:02:17;4.43;;;3.70;;
16969;SDS011;8601;48.718;8.992;2022-09-24T13:04:49;3.60;;;3.30;;
16969;SDS011;8601;48.718;8.992;2022-09-24T13:07:31;4.37;;;3.47;;
16969;SDS011;8601;48.718;8.992;2022-09-24T13:10:09;3.57;;;3.27;;
16969;SDS011;8601;48.718;8.992;2022-09-24T13:12:44;4.20;;;3.40;;
16969;SDS011;8601;48.718;8.992;2022-09-24T13:15:19;3.93;;;3.53;;
16969;SDS011;8601;48.718;8.992;2022-09-24T13:17:59;5.33;;;3.53;;
16969;SDS011;8601;48.718;8.992;2022-09-24T13:20:43;4.00;;;3.47;;
16969;SDS011;8601;48.718;8.992;2022-09-24T13:23:45;4.57;;;3.13;;
16969;SDS011;8601;48.718;8.992;2022-09-24T13:26:24;3.93;;;3.60;;
16969;SDS011;8601;48.718;8.992;2022-09-24T13:28:54;4.10;;;3.80;;
16969;SDS011;8601;48.718;8.992;2022-09-24T13:31:34;3.53;;;3.03;;
16969;SDS011;8601;48.718;8.992;2022-09-24T13:34:11;4.03;;;3.73;;
16969;SDS011;8601;48.718;8.992;2022-09-24T13:36:43;3.60;;;3.30;;
16969;SDS011;8601;48.718;8.992;2022-09-24T13:39:17;4.10;;;3.80;;
16969;SDS011;8601;48.718;8.992;2022-09-24T13:41:50;3.67;;;3.27;;
16969;SDS011;8601;48.718;8.992;2022-09-24T13:44:25;3.00;;;2.70;;
16969;SDS011;8601;48.718;8.992;2022-09-24T13:46:56;3.50;;;3.20;;
16969;SDS011;8601;48.718;8.992;2022-09-24T13:49:28;11.40;;;4.23;;
16969;SDS011;8601;48.718;8.992;2022-09-24T13:51:58;3.80;;;3.50;;
16969;SDS011;8601;48.718;8.992;2022-09-24T13:54:36;3.80;;;3.40;;
16969;SDS011;8601;48.718;8.992;2022-09-24T13:57:21;3.33;;;3.03;;
16969;SDS011;8601;48.718;8.992;2022-09-24T14:00:00;3.33;;;3.03;;
16969;SDS011;8601;48.718;8.992;2022-09-24T14:02:39;3.53;;;2.93;;
16969;SDS011;8601;48.718;8.992;2022-09-24T14:05:13;3.33;;;3.00;;
16969;SDS011;8601;48.718;8.992;2022-09-24T14:07:41;5.23;;;3.70;;
16969;SDS011;8601;48.718;8.992;2022-09-24T14:10:19;4.33;;;3.80;;
16969;SDS011;8601;48.718;8.992;2022-09-24T14:12:57;4.80;;;4.40;;
16969;SDS011;8601;48.718;8.992;2022-09-24T14:15:29;4.03;;;3.63;;
16969;SDS011;8601;48.718;8.992;2022-09-24T14:17:57;4.27;;;3.80;;
16969;SDS011;8601;48.718;8.992;2022-09-24T14:20:27;4.23;;;3.53;;
16969;SDS011;8601;48.718;8.992;2022-09-24T14:22:58;3.80;;;3.47;;
16969;SDS011;8601;48.718;8.992;2022-09-24T14:25:28;4.93;;;3.90;;
16969;SDS011;8601;48.718;8.992;2022-09-24T14:27:58;4.60;;;4.10;;
16969;SDS011;8601;48.718;8.992;2022-09-24T14:30:28;4.00;;;3.70;;
16969;SDS011;8601;48.718;8.992;2022-09-24T14:32:58;5.07;;;4.20;;
16969;SDS011;8601;48.718;8.992;2022-09-24T14:35:28;6.90;;;4.13;;
16969;SDS011;8601;48.718;8.992;2022-09-24T14:37:57;6.73;;;4.57;;
16969;SDS011;8601;48.718;8.992;2022-09-24T14:40:29;6.13;;;4.03;;
16969;SDS011;8601;48.718;8.992;2022-09-24T14:43:09;6.87;;;4.13;;
16969;SDS011;8601;48.718;8.992;2022-09-24T14:45:42;5.20;;;3.93;;
16969;SDS011;8601;48.718;8.992;2022-09-24T14:48:16;4.43;;;3.77;;
16969;SDS011;8601;48.718;8.992;2022-09-24T14:50:45;4.20;;;3.80;;
16969;SDS011;8601;48.718;8.992;2022-09-24T14:53:16;4.80;;;4.30;;
16969;SDS011;8601;48.718;8.992;2022-09-24T14:55:49;4.27;;;3.93;;
16969;SDS011;8601;48.718;8.992;2022-09-24T14:58:24;7.40;;;5.40;;
16969;SDS011;8601;48.718;8.992;2022-09-24T15:00:59;4.97;;;4.47;;
16969;SDS011;8601;48.718;8.992;2022-09-24T15:03:31;3.93;;;3.63;;
16969;SDS011;8601;48.718;8.992;2022-09-24T15:06:04;4.67;;;4.27;;
16969;SDS011;8601;48.718;8.992;2022-09-24T15:08:39;5.47;;;4.10;;
16969;SDS011;8601;48.718;8.992;2022-09-24T15:11:13;5.33;;;4.27;;
16969;SDS011;8601;48.718;8.992;2022-09-24T15:13:43;4.80;;;3.90;;
16969;SDS011;8601;48.718;8.992;2022-09-24T15:16:16;4.53;;;4.13;;
16969;SDS011;8601;48.718;8.992;2022-09-24T15:18:49;7.53;;;4.70;;
16969;SDS011;8601;48.718;8.992;2022-09-24T15:21:23;5.37;;;4.87;;
16969;SDS011;8601;48.718;8.992;2022-09-24T15:23:51;5.43;;;4.93;;
16969;SDS011;8601;48.718;8.992;2022-09-24T15:26:20;5.90;;;5.30;;
16969;SDS011;8601;48.718;8.992;2022-09-24T15:28:50;5.93;;;4.50;;
16969;SDS011;8601;48.718;8.992;2022-09-24T15:31:18;5.47;;;4.73;;
16969;SDS011;8601;48.718;8.992;2022-09-24T15:33:45;5.03;;;4.53;;
16969;SDS011;8601;48.718;8.992;2022-09-24T15:36:12;5.90;;;4.70;;
16969;SDS011;8601;48.718;8.992;2022-09-24T15:38:42;4.83;;;4.43;;
16969;SDS011;8601;48.718;8.992;2022-09-24T15:41:10;5.17;;;4.10;;
16969;SDS011;8601;48.718;8.992;2022-09-24T15:43:38;5.77;;;5.00;;
16969;SDS011;8601;48.718;8.992;2022-09-24T15:46:05;6.83;;;5.03;;
16969;SDS011;8601;48.718;8.992;2022-09-24T15:48:32;7.37;;;5.63;;
16969;SDS011;8601;48.718;8.992;2022-09-24T15:50:59;8.67;;;7.03;;
16969;SDS011;8601;48.718;8.992;2022-09-24T15:53:27;5.40;;;4.90;;
16969;SDS011;8601;48.718;8.992;2022-09-24T15:55:57;5.07;;;4.57;;
16969;SDS011;8601;48.718;8.992;2022-09-24T15:58:25;6.00;;;5.47;;